Time;durP1;ratioP1;P1;durP2;ratioP2;P2;SDS_P1;SDS_P2;PMS_P1;PMS_P2;Temp;Humidity;BMP_temperature;BMP_pressure;BME280_temperature;BME280_humidity;BME280_pressure;Samples;Min_cycle;Max_cycle;Signal;HPM_P1;HPM_P2
2021/10/06 00:00:06;;;;;;;1.80;1.40;;;;;;;;;;5094433;28;20039;-64
2021/10/06 00:02:32;;;;;;;1.92;1.50;;;;;;;;;;5086205;28;20032;-64
2021/10/06 00:04:57;;;;;;;1.85;1.35;;;;;;;;;;5090521;28;20032;-66
2021/10/06 00:07:23;;;;;;;3.25;1.52;;;;;;;;;;5088666;28;20029;-66
2021/10/06 00:09:48;;;;;;;2.00;1.50;;;;;;;;;;5090190;28;20028;-66
2021/10/06 00:12:14;;;;;;;1.92;1.38;;;;;;;;;;5089288;28;20115;-66
2021/10/06 00:14:39;;;;;;;1.92;1.42;;;;;;;;;;5092206;28;20104;-63
2021/10/06 00:17:05;;;;;;;1.95;1.40;;;;;;;;;;5089147;28;20059;-62
2021/10/06 00:19:30;;;;;;;1.77;1.30;;;;;;;;;;5091550;28;20032;-63
2021/10/06 00:21:57;;;;;;;2.47;1.90;;;;;;;;;;5089613;28;20025;-63
2021/10/06 00:24:23;;;;;;;3.47;1.42;;;;;;;;;;5089125;28;20101;-64
2021/10/06 00:26:49;;;;;;;1.98;1.35;;;;;;;;;;5093976;28;20031;-63
2021/10/06 00:29:14;;;;;;;3.20;1.90;;;;;;;;;;5090343;28;20461;-63
2021/10/06 00:31:40;;;;;;;2.03;1.45;;;;;;;;;;5091142;28;20046;-63
2021/10/06 00:34:05;;;;;;;1.60;1.20;;;;;;;;;;5096776;28;20058;-64
2021/10/06 00:36:30;;;;;;;1.83;1.40;;;;;;;;;;5092630;28;20039;-65
2021/10/06 00:38:56;;;;;;;2.08;1.50;;;;;;;;;;5093901;28;20035;-65
2021/10/06 00:41:21;;;;;;;1.70;1.30;;;;;;;;;;5090113;28;20058;-64
2021/10/06 00:43:47;;;;;;;2.60;2.00;;;;;;;;;;5090226;28;20092;-63
2021/10/06 00:46:12;;;;;;;2.13;1.67;;;;;;;;;;5089212;28;20027;-64
2021/10/06 00:48:38;;;;;;;2.00;1.38;;;;;;;;;;5090452;28;20495;-63
2021/10/06 00:51:03;;;;;;;1.65;1.30;;;;;;;;;;5088444;28;20511;-63
2021/10/06 00:53:29;;;;;;;2.10;1.50;;;;;;;;;;5089590;28;20032;-63
2021/10/06 00:55:55;;;;;;;1.70;1.30;;;;;;;;;;5091427;28;20149;-62
2021/10/06 00:58:21;;;;;;;2.28;1.65;;;;;;;;;;5087073;28;20044;-62
2021/10/06 01:00:47;;;;;;;4.45;1.60;;;;;;;;;;5087324;28;20080;-63
2021/10/06 01:03:13;;;;;;;1.75;1.30;;;;;;;;;;5089607;28;20036;-63
2021/10/06 01:05:38;;;;;;;2.13;1.58;;;;;;;;;;5084759;28;20675;-63
2021/10/06 01:08:04;;;;;;;1.88;1.40;;;;;;;;;;5086182;28;20115;-63
2021/10/06 01:10:30;;;;;;;2.10;1.48;;;;;;;;;;5090210;28;20070;-62
2021/10/06 01:12:57;;;;;;;2.22;1.75;;;;;;;;;;5086060;28;20043;-63
2021/10/06 01:15:23;;;;;;;1.73;1.35;;;;;;;;;;5090452;28;20035;-63
2021/10/06 01:17:48;;;;;;;2.08;1.42;;;;;;;;;;5089688;28;20035;-64
2021/10/06 01:20:14;;;;;;;1.85;1.45;;;;;;;;;;5089079;28;20491;-64
2021/10/06 01:22:39;;;;;;;3.15;2.13;;;;;;;;;;5086754;28;20107;-63
2021/10/06 01:25:08;;;;;;;5.68;1.48;;;;;;;;;;5087912;28;20048;-64
2021/10/06 01:27:36;;;;;;;5.68;1.85;;;;;;;;;;5087882;28;20059;-64
2021/10/06 01:30:03;;;;;;;2.30;1.60;;;;;;;;;;5083283;28;20097;-64
2021/10/06 01:32:34;;;;;;;1.70;1.30;;;;;;;;;;5096490;28;20071;-64
2021/10/06 01:35:01;;;;;;;;;;;;;;;;;;5090824;28;20024;-64
2021/10/06 01:37:27;;;;;;;2.08;1.63;;;;;;;;;;5092008;28;19908;-64
2021/10/06 01:39:52;;;;;;;2.55;1.70;;;;;;;;;;5088902;28;20032;-64
2021/10/06 01:42:18;;;;;;;2.35;1.83;;;;;;;;;;5092074;28;20055;-64
2021/10/06 01:44:44;;;;;;;3.97;1.50;;;;;;;;;;5089373;28;20698;-64
2021/10/06 01:47:15;;;;;;;1.88;1.40;;;;;;;;;;5085588;28;20096;-63
2021/10/06 01:49:42;;;;;;;2.05;1.60;;;;;;;;;;5089553;28;20035;-64
2021/10/06 01:52:08;;;;;;;2.38;1.60;;;;;;;;;;5085648;28;20059;-64
2021/10/06 01:54:33;;;;;;;2.00;1.48;;;;;;;;;;5084296;28;20040;-65
2021/10/06 01:56:58;;;;;;;1.95;1.42;;;;;;;;;;5085340;28;20047;-65
2021/10/06 01:59:24;;;;;;;1.88;1.33;;;;;;;;;;5095668;28;20032;-64
2021/10/06 02:01:49;;;;;;;2.20;1.67;;;;;;;;;;5096168;28;20035;-64
2021/10/06 02:04:14;;;;;;;1.95;1.40;;;;;;;;;;5090328;28;20580;-64
2021/10/06 02:06:40;;;;;;;3.17;1.85;;;;;;;;;;5088589;28;20040;-64
2021/10/06 02:09:05;;;;;;;2.10;1.63;;;;;;;;;;5085272;28;20122;-64
2021/10/06 02:11:31;;;;;;;4.90;1.58;;;;;;;;;;5086758;28;20339;-64
2021/10/06 02:13:56;;;;;;;2.63;1.75;;;;;;;;;;5088307;28;20082;-64
2021/10/06 02:16:21;;;;;;;2.22;1.63;;;;;;;;;;5082259;28;20025;-64
2021/10/06 02:18:47;;;;;;;1.77;1.40;;;;;;;;;;5089679;28;20346;-64
2021/10/06 02:21:12;;;;;;;1.90;1.40;;;;;;;;;;5088823;28;20031;-65
2021/10/06 02:23:37;;;;;;;2.13;1.58;;;;;;;;;;5088357;28;20485;-64
2021/10/06 02:26:03;;;;;;;4.07;2.58;;;;;;;;;;5088813;28;20095;-65
2021/10/06 02:28:29;;;;;;;2.20;1.58;;;;;;;;;;5092112;28;20048;-65
2021/10/06 02:30:55;;;;;;;1.60;1.17;;;;;;;;;;5080682;28;20032;-65
2021/10/06 02:33:20;;;;;;;1.75;1.35;;;;;;;;;;5091290;28;20046;-65
2021/10/06 02:35:46;;;;;;;1.80;1.40;;;;;;;;;;5089486;28;20032;-65
2021/10/06 02:38:11;;;;;;;1.73;1.27;;;;;;;;;;5082568;28;20106;-65
2021/10/06 02:40:37;;;;;;;2.03;1.48;;;;;;;;;;5080176;28;20107;-65
2021/10/06 02:43:02;;;;;;;2.20;1.60;;;;;;;;;;5078324;28;20424;-64
2021/10/06 02:45:28;;;;;;;1.92;1.48;;;;;;;;;;5079471;28;20044;-64
2021/10/06 02:47:53;;;;;;;3.15;2.13;;;;;;;;;;5093868;28;20035;-64
2021/10/06 02:50:23;;;;;;;2.35;2.00;;;;;;;;;;5087752;28;20025;-64
2021/10/06 02:52:49;;;;;;;2.88;1.63;;;;;;;;;;5087227;28;20032;-64
2021/10/06 02:55:14;;;;;;;2.63;1.65;;;;;;;;;;5089182;28;20097;-64
2021/10/06 02:57:39;;;;;;;4.72;1.90;;;;;;;;;;5083545;28;20028;-64
2021/10/06 03:00:07;;;;;;;1.77;1.35;;;;;;;;;;5088167;28;20059;-66
2021/10/06 03:02:33;;;;;;;2.13;1.55;;;;;;;;;;5088603;28;20029;-65
2021/10/06 03:04:59;;;;;;;1.85;1.42;;;;;;;;;;5095595;28;20354;-65
2021/10/06 03:07:24;;;;;;;3.72;1.95;;;;;;;;;;5094184;28;20043;-65
2021/10/06 03:09:49;;;;;;;2.22;1.50;;;;;;;;;;5089989;28;20028;-65
2021/10/06 03:12:15;;;;;;;2.55;1.70;;;;;;;;;;5092074;28;20478;-65
2021/10/06 03:14:40;;;;;;;2.10;1.50;;;;;;;;;;5093714;28;20078;-65
2021/10/06 03:17:06;;;;;;;2.13;1.75;;;;;;;;;;5095970;28;20039;-66
2021/10/06 03:19:31;;;;;;;1.65;1.20;;;;;;;;;;5079574;28;20052;-65
2021/10/06 03:21:57;;;;;;;1.65;1.27;;;;;;;;;;5090404;28;20028;-66
2021/10/06 03:24:22;;;;;;;1.98;1.55;;;;;;;;;;5096392;28;20032;-66
2021/10/06 03:26:47;;;;;;;3.25;1.70;;;;;;;;;;5095459;28;20757;-66
2021/10/06 03:29:13;;;;;;;3.95;1.92;;;;;;;;;;5091946;28;20454;-64
2021/10/06 03:31:38;;;;;;;2.30;1.85;;;;;;;;;;5095071;28;20051;-65
2021/10/06 03:34:03;;;;;;;1.83;1.40;;;;;;;;;;5090356;28;20029;-64
2021/10/06 03:36:29;;;;;;;3.63;2.03;;;;;;;;;;5084429;28;20119;-64
2021/10/06 03:38:54;;;;;;;3.15;1.80;;;;;;;;;;5092791;28;20032;-64
2021/10/06 03:41:20;;;;;;;1.92;1.42;;;;;;;;;;5089769;28;20173;-64
2021/10/06 03:43:45;;;;;;;2.05;1.40;;;;;;;;;;5088486;27;20104;-63
2021/10/06 03:46:11;;;;;;;2.97;1.88;;;;;;;;;;5088923;28;20399;-63
2021/10/06 03:48:37;;;;;;;2.67;1.75;;;;;;;;;;5088580;28;20465;-63
2021/10/06 03:51:02;;;;;;;1.80;1.40;;;;;;;;;;5093619;28;20656;-63
2021/10/06 03:53:28;;;;;;;3.20;2.05;;;;;;;;;;5087942;28;20369;-63
2021/10/06 03:55:53;;;;;;;2.58;1.88;;;;;;;;;;5088562;28;20055;-63
2021/10/06 03:58:18;;;;;;;1.85;1.40;;;;;;;;;;5091961;28;20031;-63
2021/10/06 04:00:44;;;;;;;2.78;1.70;;;;;;;;;;5094966;28;20028;-63
2021/10/06 04:03:14;;;;;;;2.97;1.95;;;;;;;;;;5087145;28;20039;-63
2021/10/06 04:05:40;;;;;;;2.20;1.63;;;;;;;;;;5087783;28;20047;-64
2021/10/06 04:08:06;;;;;;;1.98;1.45;;;;;;;;;;5093126;28;20032;-63
2021/10/06 04:10:31;;;;;;;2.20;1.58;;;;;;;;;;5092286;28;20933;-64
2021/10/06 04:12:57;;;;;;;2.17;1.58;;;;;;;;;;5090794;28;20467;-63
2021/10/06 04:15:23;;;;;;;1.70;1.30;;;;;;;;;;5089608;28;20049;-64
2021/10/06 04:17:48;;;;;;;2.22;1.60;;;;;;;;;;5089601;28;20077;-63
2021/10/06 04:20:14;;;;;;;2.65;1.55;;;;;;;;;;5092221;28;20209;-65
2021/10/06 04:22:39;;;;;;;2.15;1.60;;;;;;;;;;5086019;28;20094;-64
2021/10/06 04:25:07;;;;;;;1.60;1.17;;;;;;;;;;5089674;28;20034;-64
2021/10/06 04:27:32;;;;;;;1.92;1.65;;;;;;;;;;5085789;28;20032;-64
2021/10/06 04:29:58;;;;;;;1.70;1.30;;;;;;;;;;5086250;28;20040;-64
2021/10/06 04:32:23;;;;;;;5.40;2.33;;;;;;;;;;5089566;28;20028;-64
2021/10/06 04:34:49;;;;;;;2.45;2.20;;;;;;;;;;5082164;28;20524;-63
2021/10/06 04:37:14;;;;;;;1.92;1.40;;;;;;;;;;5089778;28;20032;-64
2021/10/06 04:39:39;;;;;;;1.73;1.27;;;;;;;;;;5086289;28;20032;-63
2021/10/06 04:42:06;;;;;;;4.05;2.22;;;;;;;;;;5085635;28;20032;-63
2021/10/06 04:44:31;;;;;;;2.00;1.52;;;;;;;;;;5071931;28;20031;-63
2021/10/06 04:46:56;;;;;;;2.05;1.60;;;;;;;;;;5087536;28;20039;-63
2021/10/06 04:49:22;;;;;;;2.13;1.58;;;;;;;;;;5093356;28;20510;-63
2021/10/06 04:51:47;;;;;;;4.70;2.83;;;;;;;;;;5090781;28;20112;-63
2021/10/06 04:54:13;;;;;;;4.85;1.90;;;;;;;;;;5087372;28;20036;-64
2021/10/06 04:56:38;;;;;;;1.92;1.42;;;;;;;;;;5087644;28;20374;-63
2021/10/06 04:59:04;;;;;;;9.48;2.10;;;;;;;;;;5083353;28;20036;-64
2021/10/06 05:01:29;;;;;;;1.80;1.30;;;;;;;;;;5088924;28;20114;-64
2021/10/06 05:03:55;;;;;;;4.20;2.33;;;;;;;;;;5089573;28;20057;-64
2021/10/06 05:06:20;;;;;;;1.90;1.40;;;;;;;;;;5089845;28;20493;-63
2021/10/06 05:08:45;;;;;;;1.98;1.55;;;;;;;;;;5088144;28;20032;-63
2021/10/06 05:11:12;;;;;;;1.95;1.42;;;;;;;;;;5087049;28;20046;-63
2021/10/06 05:13:38;;;;;;;2.20;1.70;;;;;;;;;;5087233;28;20115;-63
2021/10/06 05:16:04;;;;;;;2.75;1.60;;;;;;;;;;5091010;28;20115;-63
2021/10/06 05:18:29;;;;;;;2.08;1.58;;;;;;;;;;5093062;28;20625;-65
2021/10/06 05:20:55;;;;;;;2.45;1.70;;;;;;;;;;5087925;28;20093;-61
2021/10/06 05:23:20;;;;;;;14.07;2.17;;;;;;;;;;5084442;28;20118;-64
2021/10/06 05:25:46;;;;;;;2.08;1.58;;;;;;;;;;5086172;28;20093;-65
2021/10/06 05:28:11;;;;;;;2.40;1.90;;;;;;;;;;5085970;28;20032;-64
2021/10/06 05:30:37;;;;;;;3.05;1.90;;;;;;;;;;5086738;28;20031;-61
2021/10/06 05:33:02;;;;;;;2.50;1.85;;;;;;;;;;5092657;28;20042;-63
2021/10/06 05:35:27;;;;;;;1.92;1.50;;;;;;;;;;5087868;28;20616;-62
2021/10/06 05:37:53;;;;;;;2.30;1.60;;;;;;;;;;5093592;28;20150;-62
2021/10/06 05:40:18;;;;;;;2.53;1.65;;;;;;;;;;5089788;28;20040;-62
2021/10/06 05:42:44;;;;;;;3.63;1.80;;;;;;;;;;5089483;28;20338;-62
2021/10/06 05:45:10;;;;;;;4.85;1.98;;;;;;;;;;5088891;28;20070;-62
2021/10/06 05:47:36;;;;;;;2.85;1.45;;;;;;;;;;5082069;28;20047;-62
2021/10/06 05:50:03;;;;;;;4.63;2.22;;;;;;;;;;5082745;28;20468;-61
2021/10/06 05:52:28;;;;;;;3.50;2.10;;;;;;;;;;5092530;28;20031;-62
2021/10/06 05:54:54;;;;;;;4.65;1.83;;;;;;;;;;5085497;28;20089;-62
2021/10/06 05:57:19;;;;;;;2.22;1.67;;;;;;;;;;5085012;28;20081;-62
2021/10/06 05:59:45;;;;;;;2.25;1.45;;;;;;;;;;5086778;28;20047;-62
2021/10/06 06:02:10;;;;;;;3.15;1.90;;;;;;;;;;5088523;28;20067;-62
2021/10/06 06:04:35;;;;;;;2.00;1.52;;;;;;;;;;5087058;28;20044;-62
2021/10/06 06:07:02;;;;;;;2.25;1.67;;;;;;;;;;5085374;28;20059;-62
2021/10/06 06:09:27;;;;;;;2.25;1.42;;;;;;;;;;5087037;28;20081;-61
2021/10/06 06:11:53;;;;;;;2.78;1.30;;;;;;;;;;5083819;28;20048;-62
2021/10/06 06:14:18;;;;;;;1.70;1.20;;;;;;;;;;5085591;28;20044;-62
2021/10/06 06:16:44;;;;;;;2.03;1.48;;;;;;;;;;5091392;28;20031;-62
2021/10/06 06:19:10;;;;;;;2.35;1.58;;;;;;;;;;5081360;28;20028;-61
2021/10/06 06:21:35;;;;;;;2.05;1.60;;;;;;;;;;5088140;28;20046;-62
2021/10/06 06:24:02;;;;;;;16.52;2.08;;;;;;;;;;5081890;28;20122;-62
2021/10/06 06:26:27;;;;;;;2.30;1.60;;;;;;;;;;5087653;28;20044;-61
2021/10/06 06:28:52;;;;;;;1.63;1.20;;;;;;;;;;5088602;28;20031;-60
2021/10/06 06:31:18;;;;;;;4.85;2.00;;;;;;;;;;5088580;28;20388;-61
2021/10/06 06:33:45;;;;;;;1.98;1.60;;;;;;;;;;5084829;28;20040;-61
2021/10/06 06:36:11;;;;;;;3.08;2.00;;;;;;;;;;5090499;28;20028;-62
2021/10/06 06:38:37;;;;;;;1.95;1.42;;;;;;;;;;5086633;28;20043;-62
2021/10/06 06:41:03;;;;;;;3.00;1.73;;;;;;;;;;5084297;28;20024;-61
2021/10/06 06:43:29;;;;;;;1.88;1.45;;;;;;;;;;5092226;28;20063;-62
2021/10/06 06:45:54;;;;;;;2.28;1.70;;;;;;;;;;5085521;28;20107;-63
2021/10/06 06:48:20;;;;;;;3.35;1.88;;;;;;;;;;5090884;28;20027;-63
2021/10/06 06:50:50;;;;;;;2.00;1.58;;;;;;;;;;5085587;28;20846;-63
2021/10/06 06:53:16;;;;;;;3.30;1.98;;;;;;;;;;5085641;28;20034;-63
2021/10/06 06:55:41;;;;;;;3.45;1.75;;;;;;;;;;5088018;28;20032;-64
2021/10/06 06:58:07;;;;;;;1.80;1.40;;;;;;;;;;5087993;28;20047;-64
2021/10/06 07:00:32;;;;;;;3.40;1.88;;;;;;;;;;5084899;28;20051;-63
2021/10/06 07:02:57;;;;;;;2.53;2.08;;;;;;;;;;5087791;28;20043;-63
2021/10/06 07:05:23;;;;;;;2.00;1.52;;;;;;;;;;5091076;28;20032;-63
2021/10/06 07:07:49;;;;;;;3.10;2.20;;;;;;;;;;5087742;28;20066;-63
2021/10/06 07:10:15;;;;;;;2.88;2.10;;;;;;;;;;5085666;28;20044;-63
2021/10/06 07:12:40;;;;;;;1.90;1.58;;;;;;;;;;5090084;28;20094;-64
2021/10/06 07:15:06;;;;;;;2.10;1.55;;;;;;;;;;5083811;28;20039;-63
2021/10/06 07:17:31;;;;;;;2.17;1.50;;;;;;;;;;5085137;28;20031;-62
2021/10/06 07:19:57;;;;;;;2.28;1.70;;;;;;;;;;5085584;28;20074;-63
2021/10/06 07:22:23;;;;;;;2.05;1.42;;;;;;;;;;5088977;28;20026;-64
2021/10/06 07:24:48;;;;;;;2.30;1.70;;;;;;;;;;5089741;28;20453;-63
2021/10/06 07:27:14;;;;;;;4.03;1.77;;;;;;;;;;5088591;28;20024;-64
2021/10/06 07:29:40;;;;;;;3.65;1.95;;;;;;;;;;5081878;28;20039;-63
2021/10/06 07:32:06;;;;;;;2.20;1.73;;;;;;;;;;5084922;28;20090;-63
2021/10/06 07:34:32;;;;;;;2.65;1.60;;;;;;;;;;5083414;28;20096;-64
2021/10/06 07:36:57;;;;;;;2.80;1.75;;;;;;;;;;5087889;28;20114;-63
2021/10/06 07:39:23;;;;;;;2.30;1.48;;;;;;;;;;5089298;28;20034;-63
2021/10/06 07:41:48;;;;;;;2.25;1.60;;;;;;;;;;5087234;28;20036;-63
2021/10/06 07:44:14;;;;;;;3.50;2.33;;;;;;;;;;5095653;28;20090;-63
2021/10/06 07:46:42;;;;;;;1.92;1.35;;;;;;;;;;5089470;28;20028;-63
2021/10/06 07:49:07;;;;;;;2.53;1.58;;;;;;;;;;5088076;28;20024;-63
2021/10/06 07:51:33;;;;;;;1.80;1.30;;;;;;;;;;5090759;28;20105;-63
2021/10/06 07:53:58;;;;;;;3.58;1.75;;;;;;;;;;5093231;28;20071;-63
2021/10/06 07:56:24;;;;;;;2.22;1.63;;;;;;;;;;5088354;28;20073;-62
2021/10/06 07:58:49;;;;;;;1.65;1.27;;;;;;;;;;5087677;28;20050;-63
2021/10/06 08:01:15;;;;;;;3.97;1.70;;;;;;;;;;5091053;28;20053;-63
2021/10/06 08:03:40;;;;;;;3.58;1.42;;;;;;;;;;5092533;28;20035;-63
2021/10/06 08:06:06;;;;;;;3.17;1.73;;;;;;;;;;5086516;28;20377;-63
2021/10/06 08:08:31;;;;;;;2.22;1.60;;;;;;;;;;5090973;28;20028;-63
2021/10/06 08:10:59;;;;;;;2.42;1.50;;;;;;;;;;5086004;28;20119;-63
2021/10/06 08:13:25;;;;;;;1.70;1.33;;;;;;;;;;5079599;28;20373;-63
2021/10/06 08:15:52;;;;;;;2.85;1.67;;;;;;;;;;5086790;28;20062;-63
2021/10/06 08:18:19;;;;;;;2.28;1.83;;;;;;;;;;5092848;28;20078;-63
2021/10/06 08:20:49;;;;;;;2.75;1.70;;;;;;;;;;5088857;28;20115;-63
2021/10/06 08:23:20;;;;;;;1.77;1.40;;;;;;;;;;5083508;28;20067;-63
2021/10/06 08:25:47;;;;;;;2.35;1.75;;;;;;;;;;5085072;28;20032;-64
2021/10/06 08:28:13;;;;;;;1.80;1.38;;;;;;;;;;5088752;28;20127;-63
2021/10/06 08:30:39;;;;;;;1.70;1.20;;;;;;;;;;5087787;28;20032;-63
2021/10/06 08:33:05;;;;;;;2.17;1.75;;;;;;;;;;5086232;28;20036;-63
2021/10/06 08:35:30;;;;;;;2.03;1.40;;;;;;;;;;5088847;28;20032;-62
2021/10/06 08:37:56;;;;;;;1.80;1.35;;;;;;;;;;5089172;28;20040;-62
2021/10/06 08:40:22;;;;;;;1.95;1.52;;;;;;;;;;5090435;28;20027;-62
2021/10/06 08:42:48;;;;;;;3.05;1.85;;;;;;;;;;5087756;28;20034;-62
2021/10/06 08:45:13;;;;;;;3.78;2.17;;;;;;;;;;5087498;28;20035;-63
2021/10/06 08:47:40;;;;;;;2.45;1.55;;;;;;;;;;5093918;28;20023;-62
2021/10/06 08:50:12;;;;;;;1.98;1.52;;;;;;;;;;5089585;28;20020;-62
2021/10/06 08:52:37;;;;;;;1.83;1.35;;;;;;;;;;5091198;28;20028;-64
2021/10/06 08:55:05;;;;;;;1.60;1.30;;;;;;;;;;5091143;28;20020;-62
2021/10/06 08:57:32;;;;;;;1.98;1.45;;;;;;;;;;5087578;28;20024;-62
2021/10/06 08:59:58;;;;;;;3.45;1.77;;;;;;;;;;5090672;28;20036;-63
2021/10/06 09:02:24;;;;;;;1.67;1.35;;;;;;;;;;5084261;28;20046;-63
2021/10/06 09:04:50;;;;;;;3.22;1.80;;;;;;;;;;5090308;28;20028;-62
2021/10/06 09:07:16;;;;;;;1.50;1.10;;;;;;;;;;5090607;28;20365;-62
2021/10/06 09:09:41;;;;;;;1.60;1.15;;;;;;;;;;5080685;28;20032;-61
2021/10/06 09:12:16;;;;;;;3.05;1.77;;;;;;;;;;5092149;28;20039;-61
2021/10/06 09:14:44;;;;;;;2.10;1.60;;;;;;;;;;5087791;28;20028;-62
2021/10/06 09:17:12;;;;;;;2.05;1.42;;;;;;;;;;5087047;28;20032;-63
2021/10/06 09:19:46;;;;;;;2.85;1.42;;;;;;;;;;5097501;28;20464;-62
2021/10/06 09:22:17;;;;;;;1.90;1.30;;;;;;;;;;5089411;28;20785;-62
2021/10/06 09:25:05;;;;;;;1.65;1.25;;;;;;;;;;5087603;28;20442;-61
2021/10/06 09:27:32;;;;;;;2.65;1.73;;;;;;;;;;5093146;28;20718;-62
2021/10/06 09:30:05;;;;;;;2.00;1.58;;;;;;;;;;5089871;28;20028;-62
2021/10/06 09:32:44;;;;;;;1.80;1.48;;;;;;;;;;5086896;28;20032;-62
2021/10/06 09:35:17;;;;;;;1.70;1.35;;;;;;;;;;5091734;28;20039;-61
2021/10/06 09:37:45;;;;;;;3.47;2.13;;;;;;;;;;5089224;28;20027;-61
2021/10/06 09:40:13;;;;;;;1.80;1.40;;;;;;;;;;5088771;28;20088;-61
2021/10/06 09:42:47;;;;;;;2.10;1.55;;;;;;;;;;5091297;28;20031;-61
2021/10/06 09:45:30;;;;;;;1.85;1.35;;;;;;;;;;5084164;28;20036;-59
2021/10/06 09:48:12;;;;;;;1.83;1.40;;;;;;;;;;5086821;28;20020;-60
2021/10/06 09:50:39;;;;;;;1.95;1.40;;;;;;;;;;5089055;28;20044;-60
2021/10/06 09:53:16;;;;;;;4.10;2.22;;;;;;;;;;5089986;28;20554;-60
2021/10/06 09:55:45;;;;;;;2.85;1.65;;;;;;;;;;5087984;28;20036;-60
2021/10/06 09:58:11;;;;;;;1.85;1.38;;;;;;;;;;5089499;28;20035;-59
2021/10/06 10:00:39;;;;;;;4.97;1.88;;;;;;;;;;5087026;28;20034;-59
2021/10/06 10:03:05;;;;;;;3.22;1.85;;;;;;;;;;5084708;28;20032;-60
2021/10/06 10:05:33;;;;;;;2.15;1.65;;;;;;;;;;5086417;28;20125;-60
2021/10/06 10:07:59;;;;;;;3.10;1.70;;;;;;;;;;5087100;28;20064;-59
2021/10/06 10:10:25;;;;;;;2.05;1.58;;;;;;;;;;5085029;28;20070;-60
2021/10/06 10:12:51;;;;;;;1.80;1.33;;;;;;;;;;5085689;28;20032;-59
2021/10/06 10:15:19;;;;;;;2.17;1.70;;;;;;;;;;5086521;28;20046;-59
2021/10/06 10:17:51;;;;;;;2.45;1.80;;;;;;;;;;5087164;28;20024;-60
2021/10/06 10:20:17;;;;;;;1.80;1.30;;;;;;;;;;5085594;28;20039;-60
2021/10/06 10:22:46;;;;;;;2.30;1.60;;;;;;;;;;5080180;28;20024;-61
2021/10/06 10:25:26;;;;;;;2.85;2.33;;;;;;;;;;5088513;28;20039;-59
2021/10/06 10:28:05;;;;;;;2.17;1.55;;;;;;;;;;5087481;28;20042;-59
2021/10/06 10:30:32;;;;;;;2.28;1.60;;;;;;;;;;5086830;28;20063;-61
2021/10/06 10:33:00;;;;;;;4.13;2.20;;;;;;;;;;5088812;28;20606;-60
2021/10/06 10:35:34;;;;;;;2.38;1.75;;;;;;;;;;5084184;28;20473;-59
2021/10/06 10:38:00;;;;;;;2.17;1.50;;;;;;;;;;5087833;28;20139;-59
2021/10/06 10:40:34;;;;;;;2.33;1.73;;;;;;;;;;5088895;28;20107;-60
2021/10/06 10:43:11;;;;;;;2.00;1.42;;;;;;;;;;5080922;28;20036;-60
2021/10/06 10:45:43;;;;;;;2.38;1.70;;;;;;;;;;5084953;28;20081;-59
2021/10/06 10:48:13;;;;;;;2.80;1.98;;;;;;;;;;5083820;28;20039;-59
2021/10/06 10:50:42;;;;;;;2.08;1.40;;;;;;;;;;5082994;28;20039;-59
2021/10/06 10:53:08;;;;;;;2.30;1.80;;;;;;;;;;5081379;28;20586;-60
2021/10/06 10:56:00;;;;;;;2.70;1.92;;;;;;;;;;5087199;28;20131;-60
2021/10/06 10:58:29;;;;;;;2.53;1.80;;;;;;;;;;5082306;28;20089;-62
2021/10/06 11:00:56;;;;;;;2.03;1.60;;;;;;;;;;5084125;28;20092;-62
2021/10/06 11:03:21;;;;;;;2.03;1.45;;;;;;;;;;5086258;28;20032;-64
2021/10/06 11:05:48;;;;;;;4.00;2.30;;;;;;;;;;5081791;28;20089;-64
2021/10/06 11:08:31;;;;;;;2.17;1.60;;;;;;;;;;5083374;28;20044;-62
2021/10/06 11:11:12;;;;;;;2.40;1.60;;;;;;;;;;5083340;28;20457;-62
2021/10/06 11:13:39;;;;;;;1.88;1.30;;;;;;;;;;5084351;28;20047;-63
2021/10/06 11:16:05;;;;;;;2.30;1.70;;;;;;;;;;5091423;28;20115;-62
2021/10/06 11:18:58;;;;;;;2.10;1.58;;;;;;;;;;5089575;28;20055;-62
2021/10/06 11:21:39;;;;;;;3.08;2.33;;;;;;;;;;5079198;28;20032;-64
2021/10/06 11:24:20;;;;;;;2.58;1.90;;;;;;;;;;5085076;28;20354;-64
2021/10/06 11:26:47;;;;;;;1.80;1.33;;;;;;;;;;5092627;28;20035;-62
2021/10/06 11:29:13;;;;;;;2.00;1.48;;;;;;;;;;5088585;28;20505;-62
2021/10/06 11:31:39;;;;;;;3.60;2.35;;;;;;;;;;5087670;28;20139;-61
2021/10/06 11:34:18;;;;;;;2.35;1.90;;;;;;;;;;5085628;28;20031;-61
2021/10/06 11:36:49;;;;;;;5.35;2.25;;;;;;;;;;5087135;28;20048;-61
2021/10/06 11:39:15;;;;;;;;;;;;;;;;;;5089161;28;20105;-61
2021/10/06 11:41:43;;;;;;;2.42;1.70;;;;;;;;;;5086995;28;20202;-60
2021/10/06 11:44:08;;;;;;;5.43;2.22;;;;;;;;;;5084484;28;20040;-61
2021/10/06 11:46:34;;;;;;;2.30;1.73;;;;;;;;;;5086438;28;20032;-61
2021/10/06 11:49:05;;;;;;;2.47;1.88;;;;;;;;;;5085270;28;20032;-62
2021/10/06 11:51:38;;;;;;;;;;;;;;;;;;5087444;28;20046;-62
2021/10/06 11:54:04;;;;;;;1.88;1.38;;;;;;;;;;5084728;28;20682;-61
2021/10/06 11:56:31;;;;;;;4.18;1.95;;;;;;;;;;5081293;28;20032;-61
2021/10/06 11:59:13;;;;;;;3.25;2.15;;;;;;;;;;5091791;28;20040;-63
2021/10/06 12:01:40;;;;;;;2.35;1.52;;;;;;;;;;5091985;28;20032;-61
2021/10/06 12:04:14;;;;;;;1.90;1.55;;;;;;;;;;5086670;28;20043;-61
2021/10/06 12:06:42;;;;;;;2.75;2.05;;;;;;;;;;5090818;28;20036;-62
2021/10/06 12:09:09;;;;;;;2.45;1.77;;;;;;;;;;5087578;28;20039;-62
2021/10/06 12:11:41;;;;;;;9.70;2.20;;;;;;;;;;5073204;28;20540;-63
2021/10/06 12:14:20;;;;;;;2.40;1.65;;;;;;;;;;5085577;28;20032;-63
2021/10/06 12:16:56;;;;;;;2.28;1.73;;;;;;;;;;5092410;28;20024;-64
2021/10/06 12:19:25;;;;;;;2.40;1.92;;;;;;;;;;5063524;28;20500;-66
2021/10/06 12:21:52;;;;;;;3.25;2.20;;;;;;;;;;5087895;28;20059;-68
2021/10/06 12:24:23;;;;;;;2.03;1.52;;;;;;;;;;5086796;28;20060;-66
2021/10/06 12:26:50;;;;;;;2.00;1.42;;;;;;;;;;5085031;28;20148;-66
2021/10/06 12:29:20;;;;;;;2.38;1.60;;;;;;;;;;5083953;28;20032;-66
2021/10/06 12:31:46;;;;;;;;;;;;;;;;;;5089203;28;20075;-65
2021/10/06 12:34:19;;;;;;;2.30;1.70;;;;;;;;;;5091788;28;19977;-65
2021/10/06 12:36:49;;;;;;;3.55;1.85;;;;;;;;;;5084437;28;20479;-64
2021/10/06 12:39:22;;;;;;;2.05;1.48;;;;;;;;;;5080948;28;20035;-64
2021/10/06 12:41:53;;;;;;;1.90;1.30;;;;;;;;;;5086144;28;20089;-64
2021/10/06 12:44:21;;;;;;;5.20;2.63;;;;;;;;;;5081613;28;20071;-64
2021/10/06 12:46:46;;;;;;;2.72;1.92;;;;;;;;;;5087067;28;20052;-63
2021/10/06 12:49:13;;;;;;;2.40;1.80;;;;;;;;;;5084523;28;20040;-62
2021/10/06 12:51:40;;;;;;;2.25;1.77;;;;;;;;;;5084015;28;20746;-63
2021/10/06 12:54:16;;;;;;;2.20;1.55;;;;;;;;;;5088803;28;20055;-64
2021/10/06 12:57:03;;;;;;;2.60;1.70;;;;;;;;;;5083662;28;20035;-63
2021/10/06 12:59:37;;;;;;;2.63;1.50;;;;;;;;;;5085232;28;20356;-64
2021/10/06 13:02:10;;;;;;;6.07;1.58;;;;;;;;;;5086705;28;20401;-63
2021/10/06 13:04:37;;;;;;;3.00;2.10;;;;;;;;;;5087422;28;20028;-63
2021/10/06 13:07:05;;;;;;;2.58;1.80;;;;;;;;;;5084320;28;20036;-64
2021/10/06 13:09:30;;;;;;;3.97;1.60;;;;;;;;;;5086253;28;20123;-64
2021/10/06 13:11:57;;;;;;;3.35;2.05;;;;;;;;;;5084283;28;20111;-63
2021/10/06 13:14:23;;;;;;;2.78;1.95;;;;;;;;;;5087262;28;20042;-63
2021/10/06 13:16:49;;;;;;;2.50;1.58;;;;;;;;;;5093428;28;20126;-63
2021/10/06 13:19:16;;;;;;;2.03;1.52;;;;;;;;;;5085598;28;20119;-63
2021/10/06 13:21:44;;;;;;;2.42;1.52;;;;;;;;;;5083244;28;20035;-64
2021/10/06 13:24:10;;;;;;;2.10;1.50;;;;;;;;;;5092480;28;20111;-63
2021/10/06 13:26:35;;;;;;;2.40;1.83;;;;;;;;;;5085932;28;20775;-64
2021/10/06 13:29:01;;;;;;;2.25;1.73;;;;;;;;;;5086874;28;20051;-63
2021/10/06 13:31:29;;;;;;;2.25;1.70;;;;;;;;;;5087553;28;20036;-63
2021/10/06 13:33:54;;;;;;;2.30;1.50;;;;;;;;;;5087902;28;20039;-63
2021/10/06 13:36:20;;;;;;;2.55;1.80;;;;;;;;;;5086448;28;20054;-63
2021/10/06 13:38:46;;;;;;;2.35;1.50;;;;;;;;;;5082454;28;20043;-62
2021/10/06 13:41:13;;;;;;;1.95;1.40;;;;;;;;;;5088245;28;20361;-63
2021/10/06 13:43:38;;;;;;;2.17;1.60;;;;;;;;;;5086114;28;20036;-63
2021/10/06 13:46:05;;;;;;;2.47;1.70;;;;;;;;;;5081198;28;20109;-63
2021/10/06 13:48:33;;;;;;;1.65;1.20;;;;;;;;;;5087000;28;20098;-63
2021/10/06 13:50:59;;;;;;;2.35;1.73;;;;;;;;;;5087927;28;20067;-63
2021/10/06 13:53:25;;;;;;;1.92;1.40;;;;;;;;;;5087137;28;20115;-63
2021/10/06 13:55:50;;;;;;;2.42;1.67;;;;;;;;;;5085656;28;20055;-63
2021/10/06 13:58:16;;;;;;;1.70;1.30;;;;;;;;;;5087488;28;20351;-62
2021/10/06 14:00:42;;;;;;;2.70;1.50;;;;;;;;;;5087157;28;20162;-64
2021/10/06 14:03:08;;;;;;;1.65;1.20;;;;;;;;;;5083052;28;20046;-64
2021/10/06 14:05:33;;;;;;;1.70;1.27;;;;;;;;;;5087263;28;20036;-62
2021/10/06 14:07:58;;;;;;;3.58;2.03;;;;;;;;;;5090643;28;20024;-62
2021/10/06 14:10:24;;;;;;;1.90;1.40;;;;;;;;;;5086743;28;20107;-63
2021/10/06 14:12:51;;;;;;;3.03;1.88;;;;;;;;;;5082858;28;20461;-62
2021/10/06 14:15:17;;;;;;;2.15;1.52;;;;;;;;;;5088402;28;20381;-62
2021/10/06 14:17:43;;;;;;;2.05;1.42;;;;;;;;;;5086914;28;20109;-62
2021/10/06 14:20:08;;;;;;;1.75;1.35;;;;;;;;;;5084737;28;20448;-64
2021/10/06 14:22:38;;;;;;;1.80;1.42;;;;;;;;;;5081632;28;20020;-62
2021/10/06 14:25:05;;;;;;;1.80;1.33;;;;;;;;;;5089182;28;20031;-62
2021/10/06 14:27:32;;;;;;;6.07;1.40;;;;;;;;;;5092077;28;20495;-62
2021/10/06 14:29:57;;;;;;;2.08;1.52;;;;;;;;;;5086518;28;20067;-63
2021/10/06 14:32:23;;;;;;;1.80;1.42;;;;;;;;;;5085253;28;20078;-63
2021/10/06 14:34:49;;;;;;;1.80;1.35;;;;;;;;;;5085414;28;20035;-64
2021/10/06 14:37:14;;;;;;;2.20;1.70;;;;;;;;;;5085996;28;20476;-64
2021/10/06 14:39:40;;;;;;;1.90;1.48;;;;;;;;;;5088468;28;20032;-63
2021/10/06 14:42:05;;;;;;;1.60;1.20;;;;;;;;;;5090235;28;20031;-62